sensor_id;sensor_type;location;lat;lon;timestamp;P1;durP1;ratioP1;P2;durP2;ratioP2
41897;SDS011;27576;53.366;-1.498;2023-09-19T00:00:33;5.22;;;1.73;;
41897;SDS011;27576;53.366;-1.498;2023-09-19T00:02:59;7.50;;;1.55;;
41897;SDS011;27576;53.366;-1.498;2023-09-19T00:05:25;11.93;;;2.00;;
41897;SDS011;27576;53.366;-1.498;2023-09-19T00:07:52;5.53;;;1.90;;
41897;SDS011;27576;53.366;-1.498;2023-09-19T00:10:24;8.18;;;2.17;;
41897;SDS011;27576;53.366;-1.498;2023-09-19T00:12:52;9.35;;;2.17;;
41897;SDS011;27576;53.366;-1.498;2023-09-19T00:15:20;6.50;;;1.80;;
41897;SDS011;27576;53.366;-1.498;2023-09-19T00:17:49;4.53;;;1.55;;
41897;SDS011;27576;53.366;-1.498;2023-09-19T00:20:17;8.07;;;2.08;;
41897;SDS011;27576;53.366;-1.498;2023-09-19T00:22:43;6.53;;;1.58;;
41897;SDS011;27576;53.366;-1.498;2023-09-19T00:25:08;8.88;;;2.35;;
41897;SDS011;27576;53.366;-1.498;2023-09-19T00:27:38;7.97;;;2.10;;
41897;SDS011;27576;53.366;-1.498;2023-09-19T00:30:07;8.98;;;2.33;;
41897;SDS011;27576;53.366;-1.498;2023-09-19T00:32:39;9.63;;;1.90;;
41897;SDS011;27576;53.366;-1.498;2023-09-19T00:35:04;9.00;;;2.00;;
41897;SDS011;27576;53.366;-1.498;2023-09-19T00:37:30;7.82;;;1.98;;
41897;SDS011;27576;53.366;-1.498;2023-09-19T00:39:55;7.30;;;2.08;;
41897;SDS011;27576;53.366;-1.498;2023-09-19T00:42:21;10.70;;;2.03;;
41897;SDS011;27576;53.366;-1.498;2023-09-19T00:44:46;8.43;;;2.22;;
41897;SDS011;27576;53.366;-1.498;2023-09-19T00:47:12;6.75;;;1.70;;
41897;SDS011;27576;53.366;-1.498;2023-09-19T00:49:43;7.20;;;2.20;;
41897;SDS011;27576;53.366;-1.498;2023-09-19T00:52:10;8.93;;;2.20;;
41897;SDS011;27576;53.366;-1.498;2023-09-19T00:54:37;9.75;;;2.60;;
41897;SDS011;27576;53.366;-1.498;2023-09-19T00:57:02;8.27;;;2.00;;
41897;SDS011;27576;53.366;-1.498;2023-09-19T00:59:28;8.93;;;2.08;;
41897;SDS011;27576;53.366;-1.498;2023-09-19T01:01:55;15.43;;;2.72;;
41897;SDS011;27576;53.366;-1.498;2023-09-19T01:04:22;7.15;;;2.13;;
41897;SDS011;27576;53.366;-1.498;2023-09-19T01:06:47;8.10;;;2.45;;
41897;SDS011;27576;53.366;-1.498;2023-09-19T01:09:18;7.72;;;2.17;;
41897;SDS011;27576;53.366;-1.498;2023-09-19T01:11:44;9.80;;;2.13;;
41897;SDS011;27576;53.366;-1.498;2023-09-19T01:14:32;8.30;;;2.30;;
41897;SDS011;27576;53.366;-1.498;2023-09-19T01:17:14;14.35;;;2.65;;
41897;SDS011;27576;53.366;-1.498;2023-09-19T01:22:35;12.15;;;2.92;;
41897;SDS011;27576;53.366;-1.498;2023-09-19T01:25:19;12.18;;;3.00;;
41897;SDS011;27576;53.366;-1.498;2023-09-19T01:30:45;11.00;;;2.58;;
41897;SDS011;27576;53.366;-1.498;2023-09-19T01:33:12;7.10;;;2.60;;
41897;SDS011;27576;53.366;-1.498;2023-09-19T01:35:39;14.50;;;2.80;;
41897;SDS011;27576;53.366;-1.498;2023-09-19T01:38:05;7.65;;;2.13;;
41897;SDS011;27576;53.366;-1.498;2023-09-19T01:40:39;14.10;;;2.95;;
41897;SDS011;27576;53.366;-1.498;2023-09-19T01:48:39;10.32;;;2.28;;
41897;SDS011;27576;53.366;-1.498;2023-09-19T01:51:11;10.88;;;2.25;;
41897;SDS011;27576;53.366;-1.498;2023-09-19T01:56:50;12.15;;;2.67;;
41897;SDS011;27576;53.366;-1.498;2023-09-19T01:59:24;8.20;;;2.42;;
41897;SDS011;27576;53.366;-1.498;2023-09-19T02:01:56;10.18;;;2.63;;
41897;SDS011;27576;53.366;-1.498;2023-09-19T02:04:23;14.98;;;3.47;;
41897;SDS011;27576;53.366;-1.498;2023-09-19T02:06:48;10.60;;;2.78;;
41897;SDS011;27576;53.366;-1.498;2023-09-19T02:09:14;13.13;;;3.00;;
41897;SDS011;27576;53.366;-1.498;2023-09-19T02:11:40;11.15;;;2.70;;
41897;SDS011;27576;53.366;-1.498;2023-09-19T02:14:06;13.10;;;3.20;;
41897;SDS011;27576;53.366;-1.498;2023-09-19T02:16:33;13.30;;;3.47;;
41897;SDS011;27576;53.366;-1.498;2023-09-19T02:18:59;10.20;;;2.75;;
41897;SDS011;27576;53.366;-1.498;2023-09-19T02:21:25;14.35;;;2.90;;
41897;SDS011;27576;53.366;-1.498;2023-09-19T02:23:50;15.82;;;3.33;;
41897;SDS011;27576;53.366;-1.498;2023-09-19T02:26:16;13.30;;;2.80;;
41897;SDS011;27576;53.366;-1.498;2023-09-19T02:28:43;14.18;;;3.25;;
41897;SDS011;27576;53.366;-1.498;2023-09-19T02:31:10;13.25;;;2.97;;
41897;SDS011;27576;53.366;-1.498;2023-09-19T02:33:36;12.23;;;3.28;;
41897;SDS011;27576;53.366;-1.498;2023-09-19T02:36:02;13.55;;;3.30;;
41897;SDS011;27576;53.366;-1.498;2023-09-19T02:38:28;21.92;;;3.45;;
41897;SDS011;27576;53.366;-1.498;2023-09-19T02:40:54;12.25;;;3.38;;
41897;SDS011;27576;53.366;-1.498;2023-09-19T02:43:21;12.23;;;3.15;;
41897;SDS011;27576;53.366;-1.498;2023-09-19T02:45:47;14.48;;;3.90;;
41897;SDS011;27576;53.366;-1.498;2023-09-19T02:48:14;13.10;;;3.53;;
41897;SDS011;27576;53.366;-1.498;2023-09-19T02:50:40;13.95;;;2.63;;
41897;SDS011;27576;53.366;-1.498;2023-09-19T02:53:05;14.20;;;3.95;;
41897;SDS011;27576;53.366;-1.498;2023-09-19T02:55:31;14.30;;;3.13;;
41897;SDS011;27576;53.366;-1.498;2023-09-19T02:57:57;9.65;;;2.65;;
41897;SDS011;27576;53.366;-1.498;2023-09-19T03:00:23;15.55;;;3.45;;
41897;SDS011;27576;53.366;-1.498;2023-09-19T03:02:49;12.35;;;2.92;;
41897;SDS011;27576;53.366;-1.498;2023-09-19T03:05:19;16.15;;;3.25;;
41897;SDS011;27576;53.366;-1.498;2023-09-19T03:07:46;13.85;;;3.45;;
41897;SDS011;27576;53.366;-1.498;2023-09-19T03:10:15;14.65;;;3.30;;
41897;SDS011;27576;53.366;-1.498;2023-09-19T03:12:41;18.35;;;3.65;;
41897;SDS011;27576;53.366;-1.498;2023-09-19T03:15:07;12.02;;;3.30;;
41897;SDS011;27576;53.366;-1.498;2023-09-19T03:17:33;17.48;;;3.63;;
41897;SDS011;27576;53.366;-1.498;2023-09-19T03:19:59;12.85;;;3.20;;
41897;SDS011;27576;53.366;-1.498;2023-09-19T03:22:26;14.30;;;3.28;;
41897;SDS011;27576;53.366;-1.498;2023-09-19T03:24:52;16.40;;;3.90;;
41897;SDS011;27576;53.366;-1.498;2023-09-19T03:27:18;12.02;;;3.38;;
41897;SDS011;27576;53.366;-1.498;2023-09-19T03:29:43;14.25;;;3.58;;
41897;SDS011;27576;53.366;-1.498;2023-09-19T03:32:09;14.35;;;3.42;;
41897;SDS011;27576;53.366;-1.498;2023-09-19T03:34:37;16.23;;;3.97;;
41897;SDS011;27576;53.366;-1.498;2023-09-19T03:37:07;20.33;;;3.70;;
41897;SDS011;27576;53.366;-1.498;2023-09-19T03:39:33;13.13;;;3.28;;
41897;SDS011;27576;53.366;-1.498;2023-09-19T03:41:58;16.10;;;3.80;;
41897;SDS011;27576;53.366;-1.498;2023-09-19T03:44:24;21.13;;;4.38;;
41897;SDS011;27576;53.366;-1.498;2023-09-19T03:46:49;18.88;;;4.15;;
41897;SDS011;27576;53.366;-1.498;2023-09-19T03:49:15;10.10;;;3.25;;
41897;SDS011;27576;53.366;-1.498;2023-09-19T03:51:40;11.77;;;3.38;;
41897;SDS011;27576;53.366;-1.498;2023-09-19T03:54:06;12.95;;;3.90;;
41897;SDS011;27576;53.366;-1.498;2023-09-19T03:56:32;14.38;;;3.55;;
41897;SDS011;27576;53.366;-1.498;2023-09-19T03:58:57;19.27;;;3.40;;
41897;SDS011;27576;53.366;-1.498;2023-09-19T04:01:23;14.43;;;3.42;;
41897;SDS011;27576;53.366;-1.498;2023-09-19T04:03:48;16.05;;;4.00;;
41897;SDS011;27576;53.366;-1.498;2023-09-19T04:06:15;14.38;;;3.72;;
41897;SDS011;27576;53.366;-1.498;2023-09-19T04:08:41;18.95;;;3.90;;
41897;SDS011;27576;53.366;-1.498;2023-09-19T04:11:08;13.82;;;3.53;;
41897;SDS011;27576;53.366;-1.498;2023-09-19T04:13:34;13.75;;;3.80;;
41897;SDS011;27576;53.366;-1.498;2023-09-19T04:15:59;16.23;;;3.83;;
41897;SDS011;27576;53.366;-1.498;2023-09-19T04:18:25;19.27;;;3.75;;
41897;SDS011;27576;53.366;-1.498;2023-09-19T04:20:50;12.55;;;2.97;;
41897;SDS011;27576;53.366;-1.498;2023-09-19T04:23:16;17.23;;;3.83;;
41897;SDS011;27576;53.366;-1.498;2023-09-19T04:25:42;9.77;;;2.85;;
41897;SDS011;27576;53.366;-1.498;2023-09-19T04:28:07;13.82;;;3.47;;
41897;SDS011;27576;53.366;-1.498;2023-09-19T04:30:35;11.55;;;3.90;;
41897;SDS011;27576;53.366;-1.498;2023-09-19T04:33:00;13.70;;;3.40;;
41897;SDS011;27576;53.366;-1.498;2023-09-19T04:35:27;14.77;;;3.75;;
41897;SDS011;27576;53.366;-1.498;2023-09-19T04:37:54;9.75;;;2.78;;
41897;SDS011;27576;53.366;-1.498;2023-09-19T04:40:19;12.15;;;3.35;;
41897;SDS011;27576;53.366;-1.498;2023-09-19T04:42:45;13.98;;;2.97;;
41897;SDS011;27576;53.366;-1.498;2023-09-19T04:45:21;14.27;;;3.58;;
41897;SDS011;27576;53.366;-1.498;2023-09-19T04:47:47;15.70;;;3.20;;
41897;SDS011;27576;53.366;-1.498;2023-09-19T04:50:12;18.20;;;3.45;;
41897;SDS011;27576;53.366;-1.498;2023-09-19T04:52:42;9.50;;;3.13;;
41897;SDS011;27576;53.366;-1.498;2023-09-19T04:55:18;13.88;;;4.00;;
41897;SDS011;27576;53.366;-1.498;2023-09-19T04:57:48;14.77;;;3.60;;
41897;SDS011;27576;53.366;-1.498;2023-09-19T05:02:41;13.80;;;3.67;;
41897;SDS011;27576;53.366;-1.498;2023-09-19T05:05:10;12.68;;;3.05;;
41897;SDS011;27576;53.366;-1.498;2023-09-19T05:07:36;16.90;;;3.53;;
41897;SDS011;27576;53.366;-1.498;2023-09-19T05:10:03;12.65;;;3.50;;
41897;SDS011;27576;53.366;-1.498;2023-09-19T05:12:33;12.23;;;2.80;;
41897;SDS011;27576;53.366;-1.498;2023-09-19T05:14:59;16.80;;;3.45;;
41897;SDS011;27576;53.366;-1.498;2023-09-19T05:17:26;14.40;;;3.10;;
41897;SDS011;27576;53.366;-1.498;2023-09-19T05:19:51;14.95;;;3.42;;
41897;SDS011;27576;53.366;-1.498;2023-09-19T05:22:17;16.52;;;3.97;;
41897;SDS011;27576;53.366;-1.498;2023-09-19T05:24:43;19.25;;;3.47;;
41897;SDS011;27576;53.366;-1.498;2023-09-19T05:27:09;14.50;;;3.78;;
41897;SDS011;27576;53.366;-1.498;2023-09-19T05:29:35;14.23;;;3.78;;
41897;SDS011;27576;53.366;-1.498;2023-09-19T05:32:01;17.23;;;3.42;;
41897;SDS011;27576;53.366;-1.498;2023-09-19T05:34:26;17.35;;;3.65;;
41897;SDS011;27576;53.366;-1.498;2023-09-19T05:36:55;11.40;;;3.30;;
41897;SDS011;27576;53.366;-1.498;2023-09-19T05:39:20;16.98;;;3.42;;
41897;SDS011;27576;53.366;-1.498;2023-09-19T05:41:45;11.77;;;3.00;;
41897;SDS011;27576;53.366;-1.498;2023-09-19T05:44:12;10.07;;;3.17;;
41897;SDS011;27576;53.366;-1.498;2023-09-19T05:46:39;12.50;;;3.13;;
41897;SDS011;27576;53.366;-1.498;2023-09-19T05:49:04;7.78;;;2.53;;
41897;SDS011;27576;53.366;-1.498;2023-09-19T05:51:30;9.05;;;2.55;;
41897;SDS011;27576;53.366;-1.498;2023-09-19T05:53:55;14.30;;;3.03;;
41897;SDS011;27576;53.366;-1.498;2023-09-19T05:56:21;7.40;;;3.00;;
41897;SDS011;27576;53.366;-1.498;2023-09-19T05:58:46;11.02;;;3.10;;
41897;SDS011;27576;53.366;-1.498;2023-09-19T06:01:11;10.70;;;3.42;;
41897;SDS011;27576;53.366;-1.498;2023-09-19T06:03:37;12.68;;;3.35;;
41897;SDS011;27576;53.366;-1.498;2023-09-19T06:06:02;9.80;;;3.30;;
41897;SDS011;27576;53.366;-1.498;2023-09-19T06:08:29;12.27;;;3.30;;
41897;SDS011;27576;53.366;-1.498;2023-09-19T06:10:56;10.48;;;3.10;;
41897;SDS011;27576;53.366;-1.498;2023-09-19T06:13:21;6.68;;;2.45;;
41897;SDS011;27576;53.366;-1.498;2023-09-19T06:15:47;10.60;;;3.40;;
41897;SDS011;27576;53.366;-1.498;2023-09-19T06:18:12;8.80;;;3.08;;
41897;SDS011;27576;53.366;-1.498;2023-09-19T06:20:45;9.40;;;2.50;;
41897;SDS011;27576;53.366;-1.498;2023-09-19T06:23:16;7.35;;;2.60;;
41897;SDS011;27576;53.366;-1.498;2023-09-19T06:25:42;8.32;;;2.50;;
41897;SDS011;27576;53.366;-1.498;2023-09-19T06:28:08;5.65;;;2.28;;
41897;SDS011;27576;53.366;-1.498;2023-09-19T06:30:37;5.97;;;2.30;;
41897;SDS011;27576;53.366;-1.498;2023-09-19T06:33:05;8.45;;;2.25;;
41897;SDS011;27576;53.366;-1.498;2023-09-19T06:35:34;5.25;;;1.88;;
41897;SDS011;27576;53.366;-1.498;2023-09-19T06:38:03;7.95;;;2.60;;
41897;SDS011;27576;53.366;-1.498;2023-09-19T06:40:29;7.55;;;2.60;;
41897;SDS011;27576;53.366;-1.498;2023-09-19T06:42:55;16.60;;;3.30;;
41897;SDS011;27576;53.366;-1.498;2023-09-19T06:45:21;9.73;;;2.95;;
41897;SDS011;27576;53.366;-1.498;2023-09-19T06:47:47;7.40;;;2.60;;
41897;SDS011;27576;53.366;-1.498;2023-09-19T06:50:14;9.70;;;3.17;;
41897;SDS011;27576;53.366;-1.498;2023-09-19T06:52:40;8.43;;;2.33;;
41897;SDS011;27576;53.366;-1.498;2023-09-19T06:55:06;6.95;;;2.28;;
41897;SDS011;27576;53.366;-1.498;2023-09-19T06:57:32;9.60;;;3.17;;
41897;SDS011;27576;53.366;-1.498;2023-09-19T06:59:57;8.63;;;2.90;;
41897;SDS011;27576;53.366;-1.498;2023-09-19T07:02:23;12.27;;;2.90;;
41897;SDS011;27576;53.366;-1.498;2023-09-19T07:04:48;7.50;;;2.83;;
41897;SDS011;27576;53.366;-1.498;2023-09-19T07:07:14;12.75;;;3.20;;
41897;SDS011;27576;53.366;-1.498;2023-09-19T07:09:41;11.57;;;3.65;;
41897;SDS011;27576;53.366;-1.498;2023-09-19T07:12:07;14.82;;;3.70;;
41897;SDS011;27576;53.366;-1.498;2023-09-19T07:14:32;15.82;;;4.15;;
41897;SDS011;27576;53.366;-1.498;2023-09-19T07:16:58;11.15;;;3.78;;
41897;SDS011;27576;53.366;-1.498;2023-09-19T07:19:25;11.95;;;4.13;;
41897;SDS011;27576;53.366;-1.498;2023-09-19T07:21:53;16.35;;;3.92;;
41897;SDS011;27576;53.366;-1.498;2023-09-19T07:24:19;13.07;;;4.18;;
41897;SDS011;27576;53.366;-1.498;2023-09-19T07:26:47;11.43;;;3.55;;
41897;SDS011;27576;53.366;-1.498;2023-09-19T07:29:13;13.82;;;4.28;;
41897;SDS011;27576;53.366;-1.498;2023-09-19T07:31:38;13.85;;;3.58;;
41897;SDS011;27576;53.366;-1.498;2023-09-19T07:34:03;9.68;;;3.20;;
41897;SDS011;27576;53.366;-1.498;2023-09-19T07:36:30;13.02;;;3.65;;
41897;SDS011;27576;53.366;-1.498;2023-09-19T07:38:57;11.00;;;3.42;;
41897;SDS011;27576;53.366;-1.498;2023-09-19T07:41:23;10.60;;;3.80;;
41897;SDS011;27576;53.366;-1.498;2023-09-19T07:43:49;12.88;;;4.00;;
41897;SDS011;27576;53.366;-1.498;2023-09-19T07:46:14;15.30;;;3.95;;
41897;SDS011;27576;53.366;-1.498;2023-09-19T07:48:40;9.23;;;3.97;;
41897;SDS011;27576;53.366;-1.498;2023-09-19T07:51:07;15.75;;;4.22;;
41897;SDS011;27576;53.366;-1.498;2023-09-19T07:53:34;12.82;;;3.20;;
41897;SDS011;27576;53.366;-1.498;2023-09-19T07:56:06;8.65;;;3.03;;
41897;SDS011;27576;53.366;-1.498;2023-09-19T07:58:33;9.75;;;3.83;;
41897;SDS011;27576;53.366;-1.498;2023-09-19T08:01:08;6.70;;;2.97;;
41897;SDS011;27576;53.366;-1.498;2023-09-19T08:03:35;11.20;;;3.20;;
41897;SDS011;27576;53.366;-1.498;2023-09-19T08:06:05;8.20;;;3.65;;
41897;SDS011;27576;53.366;-1.498;2023-09-19T08:08:31;9.05;;;3.00;;
41897;SDS011;27576;53.366;-1.498;2023-09-19T08:10:59;8.82;;;3.22;;
41897;SDS011;27576;53.366;-1.498;2023-09-19T08:13:25;10.20;;;3.00;;
41897;SDS011;27576;53.366;-1.498;2023-09-19T08:15:51;8.52;;;2.88;;
41897;SDS011;27576;53.366;-1.498;2023-09-19T08:18:18;7.72;;;2.95;;
41897;SDS011;27576;53.366;-1.498;2023-09-19T08:20:48;12.02;;;3.55;;
41897;SDS011;27576;53.366;-1.498;2023-09-19T08:23:15;7.95;;;2.95;;
41897;SDS011;27576;53.366;-1.498;2023-09-19T08:25:43;9.77;;;3.20;;
41897;SDS011;27576;53.366;-1.498;2023-09-19T08:28:08;12.77;;;3.10;;
41897;SDS011;27576;53.366;-1.498;2023-09-19T08:30:36;8.02;;;3.35;;
41897;SDS011;27576;53.366;-1.498;2023-09-19T08:33:05;6.65;;;2.72;;
41897;SDS011;27576;53.366;-1.498;2023-09-19T08:35:31;6.78;;;2.72;;
41897;SDS011;27576;53.366;-1.498;2023-09-19T08:37:56;7.85;;;3.45;;
41897;SDS011;27576;53.366;-1.498;2023-09-19T08:40:22;8.90;;;2.40;;
41897;SDS011;27576;53.366;-1.498;2023-09-19T08:42:52;8.27;;;2.78;;
41897;SDS011;27576;53.366;-1.498;2023-09-19T08:45:19;4.97;;;2.20;;
41897;SDS011;27576;53.366;-1.498;2023-09-19T08:50:33;6.40;;;2.60;;
41897;SDS011;27576;53.366;-1.498;2023-09-19T08:53:11;4.50;;;2.13;;
41897;SDS011;27576;53.366;-1.498;2023-09-19T08:55:46;7.03;;;2.42;;
41897;SDS011;27576;53.366;-1.498;2023-09-19T08:58:14;4.28;;;2.08;;
41897;SDS011;27576;53.366;-1.498;2023-09-19T09:00:44;7.20;;;2.15;;
41897;SDS011;27576;53.366;-1.498;2023-09-19T09:03:14;5.00;;;2.10;;
41897;SDS011;27576;53.366;-1.498;2023-09-19T09:05:44;7.18;;;2.30;;
41897;SDS011;27576;53.366;-1.498;2023-09-19T09:08:12;3.70;;;1.85;;
41897;SDS011;27576;53.366;-1.498;2023-09-19T09:10:39;3.28;;;1.98;;
41897;SDS011;27576;53.366;-1.498;2023-09-19T09:13:05;4.05;;;1.77;;
41897;SDS011;27576;53.366;-1.498;2023-09-19T09:15:31;5.00;;;1.80;;
41897;SDS011;27576;53.366;-1.498;2023-09-19T09:18:01;4.43;;;1.85;;
41897;SDS011;27576;53.366;-1.498;2023-09-19T09:20:28;2.55;;;1.60;;
41897;SDS011;27576;53.366;-1.498;2023-09-19T09:22:54;2.97;;;1.50;;
41897;SDS011;27576;53.366;-1.498;2023-09-19T09:25:21;4.10;;;1.80;;
41897;SDS011;27576;53.366;-1.498;2023-09-19T09:28:01;4.00;;;1.80;;
41897;SDS011;27576;53.366;-1.498;2023-09-19T09:30:33;2.33;;;1.40;;
41897;SDS011;27576;53.366;-1.498;2023-09-19T09:33:13;4.35;;;1.42;;
41897;SDS011;27576;53.366;-1.498;2023-09-19T09:35:56;3.50;;;1.13;;
41897;SDS011;27576;53.366;-1.498;2023-09-19T09:38:26;2.03;;;1.20;;
41897;SDS011;27576;53.366;-1.498;2023-09-19T09:40:53;2.65;;;1.30;;
41897;SDS011;27576;53.366;-1.498;2023-09-19T09:43:30;1.63;;;0.93;;
41897;SDS011;27576;53.366;-1.498;2023-09-19T09:51:42;2.88;;;0.82;;
41897;SDS011;27576;53.366;-1.498;2023-09-19T09:54:15;1.05;;;0.85;;
41897;SDS011;27576;53.366;-1.498;2023-09-19T09:56:58;1.90;;;0.85;;
41897;SDS011;27576;53.366;-1.498;2023-09-19T09:59:43;1.95;;;0.80;;
41897;SDS011;27576;53.366;-1.498;2023-09-19T10:02:15;2.15;;;0.80;;
41897;SDS011;27576;53.366;-1.498;2023-09-19T10:04:54;3.92;;;0.70;;
41897;SDS011;27576;53.366;-1.498;2023-09-19T10:07:38;1.17;;;0.63;;
41897;SDS011;27576;53.366;-1.498;2023-09-19T10:10:07;1.15;;;0.80;;
41897;SDS011;27576;53.366;-1.498;2023-09-19T10:12:43;0.95;;;0.70;;
41897;SDS011;27576;53.366;-1.498;2023-09-19T10:15:13;1.48;;;0.70;;
41897;SDS011;27576;53.366;-1.498;2023-09-19T10:17:42;0.55;;;0.55;;
41897;SDS011;27576;53.366;-1.498;2023-09-19T10:20:09;0.75;;;0.50;;
41897;SDS011;27576;53.366;-1.498;2023-09-19T10:22:49;1.83;;;0.57;;
41897;SDS011;27576;53.366;-1.498;2023-09-19T10:25:23;0.30;;;0.30;;
41897;SDS011;27576;53.366;-1.498;2023-09-19T10:27:50;1.08;;;0.50;;
41897;SDS011;27576;53.366;-1.498;2023-09-19T10:30:22;0.30;;;0.30;;
41897;SDS011;27576;53.366;-1.498;2023-09-19T10:32:48;1.65;;;0.35;;
41897;SDS011;27576;53.366;-1.498;2023-09-19T10:35:23;0.35;;;0.30;;
41897;SDS011;27576;53.366;-1.498;2023-09-19T10:37:49;0.73;;;0.28;;
41897;SDS011;27576;53.366;-1.498;2023-09-19T10:40:16;0.38;;;0.30;;
41897;SDS011;27576;53.366;-1.498;2023-09-19T10:42:43;0.40;;;0.40;;
41897;SDS011;27576;53.366;-1.498;2023-09-19T10:45:13;0.85;;;0.40;;
41897;SDS011;27576;53.366;-1.498;2023-09-19T10:47:45;0.30;;;0.30;;
41897;SDS011;27576;53.366;-1.498;2023-09-19T10:50:19;2.50;;;0.30;;
41897;SDS011;27576;53.366;-1.498;2023-09-19T10:52:46;2.20;;;0.55;;
41897;SDS011;27576;53.366;-1.498;2023-09-19T10:55:18;1.85;;;0.20;;
41897;SDS011;27576;53.366;-1.498;2023-09-19T10:57:47;0.98;;;0.35;;
41897;SDS011;27576;53.366;-1.498;2023-09-19T11:00:13;0.93;;;0.40;;
41897;SDS011;27576;53.366;-1.498;2023-09-19T11:06:08;1.67;;;0.50;;
41897;SDS011;27576;53.366;-1.498;2023-09-19T11:11:45;0.95;;;0.35;;
41897;SDS011;27576;53.366;-1.498;2023-09-19T11:20:38;0.22;;;0.20;;
41897;SDS011;27576;53.366;-1.498;2023-09-19T11:30:35;1.13;;;0.40;;
41897;SDS011;27576;53.366;-1.498;2023-09-19T11:33:18;0.43;;;0.43;;
41897;SDS011;27576;53.366;-1.498;2023-09-19T11:43:50;0.85;;;0.52;;
41897;SDS011;27576;53.366;-1.498;2023-09-19T11:46:17;2.63;;;0.60;;
41897;SDS011;27576;53.366;-1.498;2023-09-19T11:48:47;0.50;;;0.30;;
41897;SDS011;27576;53.366;-1.498;2023-09-19T11:51:15;0.90;;;0.45;;
41897;SDS011;27576;53.366;-1.498;2023-09-19T11:53:48;0.30;;;0.30;;
41897;SDS011;27576;53.366;-1.498;2023-09-19T11:56:21;0.45;;;0.30;;
41897;SDS011;27576;53.366;-1.498;2023-09-19T11:58:49;1.10;;;0.60;;
41897;SDS011;27576;53.366;-1.498;2023-09-19T12:01:32;0.88;;;0.70;;
41897;SDS011;27576;53.366;-1.498;2023-09-19T12:03:59;1.27;;;0.57;;
41897;SDS011;27576;53.366;-1.498;2023-09-19T12:06:27;1.77;;;0.50;;
41897;SDS011;27576;53.366;-1.498;2023-09-19T12:08:54;0.82;;;0.30;;
41897;SDS011;27576;53.366;-1.498;2023-09-19T12:11:22;0.77;;;0.43;;
41897;SDS011;27576;53.366;-1.498;2023-09-19T12:13:48;0.47;;;0.40;;
41897;SDS011;27576;53.366;-1.498;2023-09-19T12:18:50;1.40;;;0.40;;
41897;SDS011;27576;53.366;-1.498;2023-09-19T12:21:31;0.55;;;0.55;;
41897;SDS011;27576;53.366;-1.498;2023-09-19T12:24:07;0.40;;;0.40;;
41897;SDS011;27576;53.366;-1.498;2023-09-19T12:26:39;0.45;;;0.30;;
41897;SDS011;27576;53.366;-1.498;2023-09-19T12:29:10;0.63;;;0.30;;
41897;SDS011;27576;53.366;-1.498;2023-09-19T12:31:54;0.30;;;0.30;;
41897;SDS011;27576;53.366;-1.498;2023-09-19T12:34:24;2.70;;;0.50;;
41897;SDS011;27576;53.366;-1.498;2023-09-19T12:39:41;0.85;;;0.30;;
41897;SDS011;27576;53.366;-1.498;2023-09-19T12:42:09;0.30;;;0.30;;
41897;SDS011;27576;53.366;-1.498;2023-09-19T12:44:40;0.70;;;0.45;;
41897;SDS011;27576;53.366;-1.498;2023-09-19T12:47:17;1.52;;;0.50;;
41897;SDS011;27576;53.366;-1.498;2023-09-19T12:52:51;0.63;;;0.40;;
41897;SDS011;27576;53.366;-1.498;2023-09-19T12:55:30;1.58;;;0.50;;
41897;SDS011;27576;53.366;-1.498;2023-09-19T12:58:13;1.60;;;0.50;;
41897;SDS011;27576;53.366;-1.498;2023-09-19T13:00:40;0.80;;;0.40;;
41897;SDS011;27576;53.366;-1.498;2023-09-19T13:03:17;0.75;;;0.50;;
41897;SDS011;27576;53.366;-1.498;2023-09-19T13:06:00;1.05;;;0.47;;
41897;SDS011;27576;53.366;-1.498;2023-09-19T13:09:07;2.53;;;0.50;;
41897;SDS011;27576;53.366;-1.498;2023-09-19T13:11:35;2.40;;;0.57;;
41897;SDS011;27576;53.366;-1.498;2023-09-19T13:14:21;1.65;;;0.50;;
41897;SDS011;27576;53.366;-1.498;2023-09-19T13:19:44;2.05;;;0.30;;
41897;SDS011;27576;53.366;-1.498;2023-09-19T13:22:41;1.48;;;0.50;;
41897;SDS011;27576;53.366;-1.498;2023-09-19T13:25:23;2.58;;;0.55;;
41897;SDS011;27576;53.366;-1.498;2023-09-19T13:27:49;1.13;;;0.60;;
41897;SDS011;27576;53.366;-1.498;2023-09-19T13:30:21;2.65;;;0.80;;
41897;SDS011;27576;53.366;-1.498;2023-09-19T13:32:47;0.95;;;0.40;;
41897;SDS011;27576;53.366;-1.498;2023-09-19T13:35:14;1.27;;;0.60;;
41897;SDS011;27576;53.366;-1.498;2023-09-19T13:37:40;3.65;;;0.88;;
41897;SDS011;27576;53.366;-1.498;2023-09-19T13:40:11;8.30;;;2.90;;
41897;SDS011;27576;53.366;-1.498;2023-09-19T13:42:37;4.07;;;1.10;;
41897;SDS011;27576;53.366;-1.498;2023-09-19T13:45:03;2.28;;;0.80;;
41897;SDS011;27576;53.366;-1.498;2023-09-19T13:47:29;3.03;;;0.90;;
41897;SDS011;27576;53.366;-1.498;2023-09-19T13:49:55;2.65;;;0.90;;
41897;SDS011;27576;53.366;-1.498;2023-09-19T13:52:21;3.50;;;1.10;;
41897;SDS011;27576;53.366;-1.498;2023-09-19T13:54:48;4.30;;;0.73;;
41897;SDS011;27576;53.366;-1.498;2023-09-19T13:57:15;2.10;;;0.90;;
41897;SDS011;27576;53.366;-1.498;2023-09-19T13:59:41;3.80;;;1.17;;
41897;SDS011;27576;53.366;-1.498;2023-09-19T14:02:06;3.15;;;0.93;;
41897;SDS011;27576;53.366;-1.498;2023-09-19T14:04:32;3.35;;;1.08;;
41897;SDS011;27576;53.366;-1.498;2023-09-19T14:06:59;2.92;;;1.25;;
41897;SDS011;27576;53.366;-1.498;2023-09-19T14:09:25;5.15;;;1.13;;
41897;SDS011;27576;53.366;-1.498;2023-09-19T14:11:51;3.53;;;1.10;;
41897;SDS011;27576;53.366;-1.498;2023-09-19T14:14:18;2.55;;;0.75;;
41897;SDS011;27576;53.366;-1.498;2023-09-19T14:16:45;3.35;;;0.90;;
41897;SDS011;27576;53.366;-1.498;2023-09-19T14:19:11;2.38;;;0.80;;
41897;SDS011;27576;53.366;-1.498;2023-09-19T14:21:36;3.45;;;0.90;;
41897;SDS011;27576;53.366;-1.498;2023-09-19T14:24:03;2.95;;;0.80;;
41897;SDS011;27576;53.366;-1.498;2023-09-19T14:26:28;3.45;;;0.90;;
41897;SDS011;27576;53.366;-1.498;2023-09-19T14:28:54;6.53;;;1.30;;
41897;SDS011;27576;53.366;-1.498;2023-09-19T14:31:19;5.43;;;1.50;;
41897;SDS011;27576;53.366;-1.498;2023-09-19T14:33:45;4.93;;;1.45;;
41897;SDS011;27576;53.366;-1.498;2023-09-19T14:36:10;4.95;;;1.90;;
41897;SDS011;27576;53.366;-1.498;2023-09-19T14:38:36;8.80;;;2.67;;
41897;SDS011;27576;53.366;-1.498;2023-09-19T14:41:03;5.35;;;1.80;;
41897;SDS011;27576;53.366;-1.498;2023-09-19T14:43:30;10.52;;;2.85;;
41897;SDS011;27576;53.366;-1.498;2023-09-19T14:45:57;10.82;;;2.15;;
41897;SDS011;27576;53.366;-1.498;2023-09-19T14:48:27;8.77;;;2.33;;
41897;SDS011;27576;53.366;-1.498;2023-09-19T14:50:52;6.25;;;2.28;;
41897;SDS011;27576;53.366;-1.498;2023-09-19T14:53:17;8.15;;;2.13;;
41897;SDS011;27576;53.366;-1.498;2023-09-19T14:55:43;15.15;;;2.55;;
41897;SDS011;27576;53.366;-1.498;2023-09-19T14:58:12;11.85;;;2.13;;
41897;SDS011;27576;53.366;-1.498;2023-09-19T15:00:38;12.43;;;2.47;;
41897;SDS011;27576;53.366;-1.498;2023-09-19T15:03:04;11.23;;;2.10;;
41897;SDS011;27576;53.366;-1.498;2023-09-19T15:05:29;6.53;;;2.30;;
41897;SDS011;27576;53.366;-1.498;2023-09-19T15:07:55;13.48;;;2.83;;
41897;SDS011;27576;53.366;-1.498;2023-09-19T15:10:22;11.02;;;2.75;;
41897;SDS011;27576;53.366;-1.498;2023-09-19T15:12:47;12.10;;;2.30;;
41897;SDS011;27576;53.366;-1.498;2023-09-19T15:15:13;9.43;;;2.85;;
41897;SDS011;27576;53.366;-1.498;2023-09-19T15:17:39;12.05;;;2.60;;
41897;SDS011;27576;53.366;-1.498;2023-09-19T15:20:04;15.48;;;2.90;;
41897;SDS011;27576;53.366;-1.498;2023-09-19T15:22:32;12.40;;;3.35;;
41897;SDS011;27576;53.366;-1.498;2023-09-19T15:24:59;11.15;;;3.00;;
41897;SDS011;27576;53.366;-1.498;2023-09-19T15:27:25;10.13;;;2.95;;
41897;SDS011;27576;53.366;-1.498;2023-09-19T15:29:50;13.68;;;2.83;;
41897;SDS011;27576;53.366;-1.498;2023-09-19T15:32:15;10.55;;;2.63;;
41897;SDS011;27576;53.366;-1.498;2023-09-19T15:34:41;13.52;;;2.75;;
41897;SDS011;27576;53.366;-1.498;2023-09-19T15:37:06;9.65;;;2.50;;
41897;SDS011;27576;53.366;-1.498;2023-09-19T15:39:31;11.15;;;2.58;;